sensor_id;sensor_type;location;lat;lon;timestamp;P1;durP1;ratioP1;P2;durP2;ratioP2
15295;SDS011;7749;49.964;7.890;2023-03-01T00:01:41;9.97;;;8.93;;
15295;SDS011;7749;49.964;7.890;2023-03-01T00:04:08;10.03;;;9.07;;
15295;SDS011;7749;49.964;7.890;2023-03-01T00:06:36;9.53;;;8.67;;
15295;SDS011;7749;49.964;7.890;2023-03-01T00:09:04;9.13;;;8.30;;
15295;SDS011;7749;49.964;7.890;2023-03-01T00:11:32;9.93;;;8.83;;
15295;SDS011;7749;49.964;7.890;2023-03-01T00:14:01;9.70;;;8.80;;
15295;SDS011;7749;49.964;7.890;2023-03-01T00:16:33;10.10;;;9.20;;
15295;SDS011;7749;49.964;7.890;2023-03-01T00:19:03;10.10;;;9.10;;
15295;SDS011;7749;49.964;7.890;2023-03-01T00:21:31;11.20;;;9.43;;
15295;SDS011;7749;49.964;7.890;2023-03-01T00:23:58;9.97;;;8.90;;
15295;SDS011;7749;49.964;7.890;2023-03-01T00:26:26;9.70;;;8.70;;
15295;SDS011;7749;49.964;7.890;2023-03-01T00:28:56;10.17;;;9.10;;
15295;SDS011;7749;49.964;7.890;2023-03-01T00:31:27;10.33;;;9.33;;
15295;SDS011;7749;49.964;7.890;2023-03-01T00:33:57;9.97;;;8.97;;
15295;SDS011;7749;49.964;7.890;2023-03-01T00:36:28;11.00;;;10.00;;
15295;SDS011;7749;49.964;7.890;2023-03-01T00:39:00;11.17;;;10.20;;
15295;SDS011;7749;49.964;7.890;2023-03-01T00:41:50;12.57;;;11.03;;
15295;SDS011;7749;49.964;7.890;2023-03-01T00:44:18;11.20;;;9.87;;
15295;SDS011;7749;49.964;7.890;2023-03-01T00:46:46;11.50;;;10.40;;
15295;SDS011;7749;49.964;7.890;2023-03-01T00:49:13;11.30;;;10.17;;
15295;SDS011;7749;49.964;7.890;2023-03-01T00:51:43;10.70;;;9.67;;
15295;SDS011;7749;49.964;7.890;2023-03-01T00:54:11;11.07;;;10.03;;
15295;SDS011;7749;49.964;7.890;2023-03-01T00:56:39;11.07;;;9.97;;
15295;SDS011;7749;49.964;7.890;2023-03-01T00:59:06;10.80;;;9.80;;
15295;SDS011;7749;49.964;7.890;2023-03-01T01:01:34;10.37;;;9.37;;
15295;SDS011;7749;49.964;7.890;2023-03-01T01:04:06;10.97;;;9.97;;
15295;SDS011;7749;49.964;7.890;2023-03-01T01:06:37;11.97;;;10.77;;
15295;SDS011;7749;49.964;7.890;2023-03-01T01:09:15;10.27;;;9.37;;
15295;SDS011;7749;49.964;7.890;2023-03-01T01:11:49;11.57;;;10.40;;
15295;SDS011;7749;49.964;7.890;2023-03-01T01:14:18;11.30;;;10.30;;
15295;SDS011;7749;49.964;7.890;2023-03-01T01:16:46;11.20;;;10.17;;
15295;SDS011;7749;49.964;7.890;2023-03-01T01:19:14;10.13;;;9.13;;
15295;SDS011;7749;49.964;7.890;2023-03-01T01:21:44;11.30;;;10.30;;
15295;SDS011;7749;49.964;7.890;2023-03-01T01:24:13;10.20;;;9.30;;
15295;SDS011;7749;49.964;7.890;2023-03-01T01:26:41;10.63;;;9.60;;
15295;SDS011;7749;49.964;7.890;2023-03-01T01:29:09;10.80;;;9.70;;
15295;SDS011;7749;49.964;7.890;2023-03-01T01:31:38;11.20;;;10.20;;
15295;SDS011;7749;49.964;7.890;2023-03-01T01:34:08;11.67;;;10.57;;
15295;SDS011;7749;49.964;7.890;2023-03-01T01:36:47;11.93;;;10.80;;
15295;SDS011;7749;49.964;7.890;2023-03-01T01:39:16;10.80;;;9.80;;
15295;SDS011;7749;49.964;7.890;2023-03-01T01:41:44;11.20;;;10.10;;
15295;SDS011;7749;49.964;7.890;2023-03-01T01:44:19;11.00;;;10.00;;
15295;SDS011;7749;49.964;7.890;2023-03-01T01:46:55;11.27;;;10.27;;
15295;SDS011;7749;49.964;7.890;2023-03-01T01:49:31;11.03;;;10.03;;
15295;SDS011;7749;49.964;7.890;2023-03-01T01:52:04;11.30;;;10.20;;
15295;SDS011;7749;49.964;7.890;2023-03-01T01:57:36;11.97;;;10.90;;
15295;SDS011;7749;49.964;7.890;2023-03-01T02:00:12;11.53;;;10.43;;
15295;SDS011;7749;49.964;7.890;2023-03-01T02:02:44;12.00;;;10.90;;
15295;SDS011;7749;49.964;7.890;2023-03-01T02:08:13;12.57;;;11.47;;
15295;SDS011;7749;49.964;7.890;2023-03-01T02:10:43;11.57;;;10.60;;
15295;SDS011;7749;49.964;7.890;2023-03-01T02:13:12;12.43;;;11.23;;
15295;SDS011;7749;49.964;7.890;2023-03-01T02:15:40;12.27;;;10.97;;
15295;SDS011;7749;49.964;7.890;2023-03-01T02:18:13;11.60;;;10.40;;
15295;SDS011;7749;49.964;7.890;2023-03-01T02:23:19;11.53;;;10.43;;
15295;SDS011;7749;49.964;7.890;2023-03-01T02:28:32;12.50;;;11.20;;
15295;SDS011;7749;49.964;7.890;2023-03-01T02:31:01;11.87;;;10.77;;
15295;SDS011;7749;49.964;7.890;2023-03-01T02:33:51;12.57;;;11.37;;
15295;SDS011;7749;49.964;7.890;2023-03-01T02:36:24;12.13;;;11.03;;
15295;SDS011;7749;49.964;7.890;2023-03-01T02:38:57;11.90;;;10.70;;
15295;SDS011;7749;49.964;7.890;2023-03-01T02:41:28;12.00;;;10.90;;
15295;SDS011;7749;49.964;7.890;2023-03-01T02:43:59;11.90;;;10.80;;
15295;SDS011;7749;49.964;7.890;2023-03-01T02:46:26;12.03;;;10.97;;
15295;SDS011;7749;49.964;7.890;2023-03-01T02:48:55;12.07;;;10.97;;
15295;SDS011;7749;49.964;7.890;2023-03-01T02:56:42;11.97;;;10.90;;
15295;SDS011;7749;49.964;7.890;2023-03-01T02:59:11;11.90;;;10.80;;
15295;SDS011;7749;49.964;7.890;2023-03-01T03:01:39;12.30;;;11.20;;
15295;SDS011;7749;49.964;7.890;2023-03-01T03:04:08;13.10;;;11.90;;
15295;SDS011;7749;49.964;7.890;2023-03-01T03:06:37;12.43;;;11.43;;
15295;SDS011;7749;49.964;7.890;2023-03-01T03:09:06;13.63;;;12.33;;
15295;SDS011;7749;49.964;7.890;2023-03-01T03:11:35;12.37;;;11.27;;
15295;SDS011;7749;49.964;7.890;2023-03-01T03:14:04;12.93;;;11.73;;
15295;SDS011;7749;49.964;7.890;2023-03-01T03:16:32;13.63;;;12.23;;
15295;SDS011;7749;49.964;7.890;2023-03-01T03:19:00;13.10;;;12.00;;
15295;SDS011;7749;49.964;7.890;2023-03-01T03:21:32;13.47;;;12.17;;
15295;SDS011;7749;49.964;7.890;2023-03-01T03:24:01;13.70;;;12.40;;
15295;SDS011;7749;49.964;7.890;2023-03-01T03:26:33;14.47;;;13.10;;
15295;SDS011;7749;49.964;7.890;2023-03-01T03:29:03;13.23;;;12.03;;
15295;SDS011;7749;49.964;7.890;2023-03-01T03:31:31;13.53;;;12.30;;
15295;SDS011;7749;49.964;7.890;2023-03-01T03:33:59;14.00;;;12.57;;
15295;SDS011;7749;49.964;7.890;2023-03-01T03:36:26;14.43;;;13.13;;
15295;SDS011;7749;49.964;7.890;2023-03-01T03:38:54;13.93;;;12.63;;
15295;SDS011;7749;49.964;7.890;2023-03-01T03:41:22;13.90;;;12.60;;
15295;SDS011;7749;49.964;7.890;2023-03-01T03:43:50;14.87;;;13.50;;
15295;SDS011;7749;49.964;7.890;2023-03-01T03:46:20;13.83;;;12.47;;
15295;SDS011;7749;49.964;7.890;2023-03-01T03:48:48;14.37;;;13.07;;
15295;SDS011;7749;49.964;7.890;2023-03-01T03:51:17;20.10;;;14.00;;
15295;SDS011;7749;49.964;7.890;2023-03-01T03:53:45;14.47;;;12.97;;
15295;SDS011;7749;49.964;7.890;2023-03-01T03:56:13;14.47;;;13.17;;
15295;SDS011;7749;49.964;7.890;2023-03-01T03:58:41;14.77;;;13.33;;
15295;SDS011;7749;49.964;7.890;2023-03-01T04:01:09;15.40;;;14.10;;
15295;SDS011;7749;49.964;7.890;2023-03-01T04:03:36;16.03;;;14.50;;
15295;SDS011;7749;49.964;7.890;2023-03-01T04:06:04;16.00;;;14.60;;
15295;SDS011;7749;49.964;7.890;2023-03-01T04:08:33;15.90;;;14.40;;
15295;SDS011;7749;49.964;7.890;2023-03-01T04:11:01;16.17;;;14.53;;
15295;SDS011;7749;49.964;7.890;2023-03-01T04:13:51;15.33;;;14.00;;
15295;SDS011;7749;49.964;7.890;2023-03-01T04:16:19;15.83;;;14.43;;
15295;SDS011;7749;49.964;7.890;2023-03-01T04:18:47;15.63;;;14.13;;
15295;SDS011;7749;49.964;7.890;2023-03-01T04:21:15;16.83;;;15.13;;
15295;SDS011;7749;49.964;7.890;2023-03-01T04:23:43;15.97;;;14.47;;
15295;SDS011;7749;49.964;7.890;2023-03-01T04:26:11;16.23;;;14.63;;
15295;SDS011;7749;49.964;7.890;2023-03-01T04:28:42;16.00;;;14.57;;
15295;SDS011;7749;49.964;7.890;2023-03-01T04:31:13;17.67;;;15.80;;
15295;SDS011;7749;49.964;7.890;2023-03-01T04:33:51;16.70;;;15.13;;
15295;SDS011;7749;49.964;7.890;2023-03-01T04:36:24;16.10;;;14.70;;
15295;SDS011;7749;49.964;7.890;2023-03-01T04:38:54;15.80;;;14.40;;
15295;SDS011;7749;49.964;7.890;2023-03-01T04:41:23;15.83;;;14.33;;
15295;SDS011;7749;49.964;7.890;2023-03-01T04:43:54;16.20;;;14.80;;
15295;SDS011;7749;49.964;7.890;2023-03-01T04:46:21;17.50;;;15.93;;
15295;SDS011;7749;49.964;7.890;2023-03-01T04:48:49;17.63;;;15.90;;
15295;SDS011;7749;49.964;7.890;2023-03-01T04:51:17;17.37;;;15.87;;
15295;SDS011;7749;49.964;7.890;2023-03-01T04:53:45;16.67;;;15.17;;
15295;SDS011;7749;49.964;7.890;2023-03-01T04:56:13;18.03;;;16.50;;
15295;SDS011;7749;49.964;7.890;2023-03-01T04:58:42;17.17;;;15.67;;
15295;SDS011;7749;49.964;7.890;2023-03-01T05:01:11;18.27;;;16.57;;
15295;SDS011;7749;49.964;7.890;2023-03-01T05:03:44;17.90;;;16.23;;
15295;SDS011;7749;49.964;7.890;2023-03-01T05:06:19;17.00;;;15.40;;
15295;SDS011;7749;49.964;7.890;2023-03-01T05:08:47;16.47;;;14.97;;
15295;SDS011;7749;49.964;7.890;2023-03-01T05:11:15;16.57;;;15.00;;
15295;SDS011;7749;49.964;7.890;2023-03-01T05:13:43;17.13;;;15.50;;
15295;SDS011;7749;49.964;7.890;2023-03-01T05:16:10;17.20;;;15.60;;
15295;SDS011;7749;49.964;7.890;2023-03-01T05:18:40;18.50;;;16.80;;
15295;SDS011;7749;49.964;7.890;2023-03-01T05:21:09;18.43;;;16.73;;
15295;SDS011;7749;49.964;7.890;2023-03-01T05:23:44;18.47;;;16.77;;
15295;SDS011;7749;49.964;7.890;2023-03-01T05:26:12;19.50;;;17.50;;
15295;SDS011;7749;49.964;7.890;2023-03-01T05:28:54;18.73;;;16.93;;
15295;SDS011;7749;49.964;7.890;2023-03-01T05:31:26;17.87;;;16.27;;
15295;SDS011;7749;49.964;7.890;2023-03-01T05:33:54;18.67;;;17.00;;
15295;SDS011;7749;49.964;7.890;2023-03-01T05:36:22;18.77;;;17.07;;
15295;SDS011;7749;49.964;7.890;2023-03-01T05:38:49;19.30;;;17.43;;
15295;SDS011;7749;49.964;7.890;2023-03-01T05:41:18;19.03;;;17.17;;
15295;SDS011;7749;49.964;7.890;2023-03-01T05:43:47;18.40;;;16.70;;
15295;SDS011;7749;49.964;7.890;2023-03-01T05:46:14;18.80;;;17.03;;
15295;SDS011;7749;49.964;7.890;2023-03-01T05:48:42;17.93;;;16.43;;
15295;SDS011;7749;49.964;7.890;2023-03-01T05:51:10;17.73;;;16.13;;
15295;SDS011;7749;49.964;7.890;2023-03-01T05:53:39;18.43;;;16.73;;
15295;SDS011;7749;49.964;7.890;2023-03-01T05:56:06;18.97;;;17.27;;
15295;SDS011;7749;49.964;7.890;2023-03-01T05:58:34;18.90;;;17.13;;
15295;SDS011;7749;49.964;7.890;2023-03-01T06:01:02;18.40;;;16.70;;
15295;SDS011;7749;49.964;7.890;2023-03-01T06:03:30;19.30;;;17.37;;
15295;SDS011;7749;49.964;7.890;2023-03-01T06:05:57;19.77;;;17.97;;
15295;SDS011;7749;49.964;7.890;2023-03-01T06:08:25;18.97;;;17.17;;
15295;SDS011;7749;49.964;7.890;2023-03-01T06:10:54;19.43;;;17.53;;
15295;SDS011;7749;49.964;7.890;2023-03-01T06:13:22;19.57;;;17.87;;
15295;SDS011;7749;49.964;7.890;2023-03-01T06:15:51;18.83;;;17.10;;
15295;SDS011;7749;49.964;7.890;2023-03-01T06:18:19;19.17;;;17.47;;
15295;SDS011;7749;49.964;7.890;2023-03-01T06:20:52;19.63;;;17.83;;
15295;SDS011;7749;49.964;7.890;2023-03-01T06:23:21;18.97;;;17.27;;
15295;SDS011;7749;49.964;7.890;2023-03-01T06:25:50;20.80;;;18.57;;
15295;SDS011;7749;49.964;7.890;2023-03-01T06:28:17;21.43;;;19.07;;
15295;SDS011;7749;49.964;7.890;2023-03-01T06:30:45;20.73;;;18.67;;
15295;SDS011;7749;49.964;7.890;2023-03-01T06:33:13;19.63;;;17.83;;
15295;SDS011;7749;49.964;7.890;2023-03-01T06:35:41;19.57;;;17.63;;
15295;SDS011;7749;49.964;7.890;2023-03-01T06:38:08;20.40;;;18.50;;
15295;SDS011;7749;49.964;7.890;2023-03-01T06:40:36;21.07;;;19.17;;
15295;SDS011;7749;49.964;7.890;2023-03-01T06:43:04;22.20;;;19.97;;
15295;SDS011;7749;49.964;7.890;2023-03-01T06:45:32;21.60;;;19.60;;
15295;SDS011;7749;49.964;7.890;2023-03-01T06:48:03;21.07;;;19.07;;
15295;SDS011;7749;49.964;7.890;2023-03-01T06:50:32;21.47;;;19.47;;
15295;SDS011;7749;49.964;7.890;2023-03-01T06:53:00;20.77;;;18.77;;
15295;SDS011;7749;49.964;7.890;2023-03-01T06:55:28;19.43;;;17.63;;
15295;SDS011;7749;49.964;7.890;2023-03-01T06:57:56;22.13;;;19.93;;
15295;SDS011;7749;49.964;7.890;2023-03-01T07:00:26;21.77;;;19.73;;
15295;SDS011;7749;49.964;7.890;2023-03-01T07:03:00;20.47;;;18.67;;
15295;SDS011;7749;49.964;7.890;2023-03-01T07:05:29;20.07;;;18.13;;
15295;SDS011;7749;49.964;7.890;2023-03-01T07:07:57;21.33;;;19.27;;
15295;SDS011;7749;49.964;7.890;2023-03-01T07:10:25;20.97;;;18.80;;
15295;SDS011;7749;49.964;7.890;2023-03-01T07:12:56;21.70;;;19.50;;
15295;SDS011;7749;49.964;7.890;2023-03-01T07:15:25;20.77;;;18.87;;
15295;SDS011;7749;49.964;7.890;2023-03-01T07:17:53;21.63;;;19.43;;
15295;SDS011;7749;49.964;7.890;2023-03-01T07:20:21;20.83;;;18.80;;
15295;SDS011;7749;49.964;7.890;2023-03-01T07:22:52;21.67;;;19.47;;
15295;SDS011;7749;49.964;7.890;2023-03-01T07:25:20;22.10;;;19.17;;
15295;SDS011;7749;49.964;7.890;2023-03-01T07:27:49;23.27;;;20.87;;
15295;SDS011;7749;49.964;7.890;2023-03-01T07:30:18;21.27;;;19.17;;
15295;SDS011;7749;49.964;7.890;2023-03-01T07:32:47;21.80;;;19.70;;
15295;SDS011;7749;49.964;7.890;2023-03-01T07:35:15;20.63;;;18.63;;
15295;SDS011;7749;49.964;7.890;2023-03-01T07:37:42;20.33;;;18.23;;
15295;SDS011;7749;49.964;7.890;2023-03-01T07:40:10;19.90;;;17.93;;
15295;SDS011;7749;49.964;7.890;2023-03-01T07:42:39;20.90;;;18.40;;
15295;SDS011;7749;49.964;7.890;2023-03-01T07:45:06;20.83;;;17.70;;
15295;SDS011;7749;49.964;7.890;2023-03-01T07:47:34;19.83;;;17.73;;
15295;SDS011;7749;49.964;7.890;2023-03-01T07:50:05;20.90;;;17.20;;
15295;SDS011;7749;49.964;7.890;2023-03-01T07:52:33;21.67;;;18.73;;
15295;SDS011;7749;49.964;7.890;2023-03-01T07:55:00;20.07;;;17.80;;
15295;SDS011;7749;49.964;7.890;2023-03-01T07:57:28;31.60;;;17.63;;
15295;SDS011;7749;49.964;7.890;2023-03-01T07:59:56;25.50;;;17.97;;
15295;SDS011;7749;49.964;7.890;2023-03-01T08:02:23;19.10;;;17.00;;
15295;SDS011;7749;49.964;7.890;2023-03-01T08:04:51;19.87;;;17.27;;
15295;SDS011;7749;49.964;7.890;2023-03-01T08:07:19;19.40;;;16.77;;
15295;SDS011;7749;49.964;7.890;2023-03-01T08:09:46;20.70;;;18.03;;
15295;SDS011;7749;49.964;7.890;2023-03-01T08:12:14;22.50;;;16.70;;
15295;SDS011;7749;49.964;7.890;2023-03-01T08:14:43;21.40;;;17.07;;
15295;SDS011;7749;49.964;7.890;2023-03-01T08:17:13;30.67;;;18.67;;
15295;SDS011;7749;49.964;7.890;2023-03-01T08:19:42;18.13;;;16.23;;
15295;SDS011;7749;49.964;7.890;2023-03-01T08:22:10;19.30;;;17.33;;
15295;SDS011;7749;49.964;7.890;2023-03-01T08:24:37;21.30;;;16.83;;
15295;SDS011;7749;49.964;7.890;2023-03-01T08:27:05;19.13;;;17.13;;
15295;SDS011;7749;49.964;7.890;2023-03-01T08:29:33;20.40;;;16.80;;
15295;SDS011;7749;49.964;7.890;2023-03-01T08:32:01;18.80;;;16.80;;
15295;SDS011;7749;49.964;7.890;2023-03-01T08:34:28;19.43;;;16.40;;
15295;SDS011;7749;49.964;7.890;2023-03-01T08:36:58;22.13;;;17.67;;
15295;SDS011;7749;49.964;7.890;2023-03-01T08:39:25;19.60;;;16.93;;
15295;SDS011;7749;49.964;7.890;2023-03-01T08:41:53;20.83;;;17.60;;
15295;SDS011;7749;49.964;7.890;2023-03-01T08:44:21;19.00;;;17.00;;
15295;SDS011;7749;49.964;7.890;2023-03-01T08:46:49;28.23;;;16.77;;
15295;SDS011;7749;49.964;7.890;2023-03-01T08:49:18;30.10;;;16.90;;
15295;SDS011;7749;49.964;7.890;2023-03-01T08:51:47;20.67;;;16.57;;
15295;SDS011;7749;49.964;7.890;2023-03-01T08:54:16;19.00;;;16.97;;
15295;SDS011;7749;49.964;7.890;2023-03-01T08:56:48;20.83;;;17.17;;
15295;SDS011;7749;49.964;7.890;2023-03-01T08:59:17;18.73;;;16.70;;
15295;SDS011;7749;49.964;7.890;2023-03-01T09:01:45;24.00;;;17.67;;
15295;SDS011;7749;49.964;7.890;2023-03-01T09:04:14;24.53;;;16.30;;
15295;SDS011;7749;49.964;7.890;2023-03-01T09:06:45;19.93;;;16.77;;
15295;SDS011;7749;49.964;7.890;2023-03-01T09:09:16;20.60;;;16.80;;
15295;SDS011;7749;49.964;7.890;2023-03-01T09:11:44;20.17;;;16.37;;
15295;SDS011;7749;49.964;7.890;2023-03-01T09:14:14;19.30;;;16.37;;
15295;SDS011;7749;49.964;7.890;2023-03-01T09:16:42;21.13;;;16.50;;
15295;SDS011;7749;49.964;7.890;2023-03-01T09:19:10;21.40;;;16.80;;
15295;SDS011;7749;49.964;7.890;2023-03-01T09:21:38;20.70;;;16.20;;
15295;SDS011;7749;49.964;7.890;2023-03-01T09:24:11;19.23;;;15.97;;
15295;SDS011;7749;49.964;7.890;2023-03-01T09:26:40;18.47;;;15.73;;
15295;SDS011;7749;49.964;7.890;2023-03-01T09:29:08;19.13;;;15.20;;
15295;SDS011;7749;49.964;7.890;2023-03-01T09:31:37;23.93;;;16.47;;
15295;SDS011;7749;49.964;7.890;2023-03-01T09:34:08;22.03;;;16.27;;
15295;SDS011;7749;49.964;7.890;2023-03-01T09:36:36;19.27;;;15.10;;
15295;SDS011;7749;49.964;7.890;2023-03-01T09:39:04;21.70;;;15.77;;
15295;SDS011;7749;49.964;7.890;2023-03-01T09:41:42;20.53;;;15.40;;
15295;SDS011;7749;49.964;7.890;2023-03-01T09:46:58;17.00;;;14.80;;
15295;SDS011;7749;49.964;7.890;2023-03-01T09:49:28;16.90;;;14.73;;
15295;SDS011;7749;49.964;7.890;2023-03-01T09:54:51;22.27;;;15.57;;
15295;SDS011;7749;49.964;7.890;2023-03-01T09:57:36;19.67;;;15.40;;
15295;SDS011;7749;49.964;7.890;2023-03-01T10:02:52;19.17;;;14.70;;
15295;SDS011;7749;49.964;7.890;2023-03-01T10:08:16;19.13;;;14.10;;
15295;SDS011;7749;49.964;7.890;2023-03-01T10:10:53;21.27;;;14.83;;
15295;SDS011;7749;49.964;7.890;2023-03-01T10:13:25;21.37;;;14.63;;
15295;SDS011;7749;49.964;7.890;2023-03-01T10:16:02;16.50;;;14.27;;
15295;SDS011;7749;49.964;7.890;2023-03-01T10:18:42;18.67;;;14.60;;
15295;SDS011;7749;49.964;7.890;2023-03-01T10:21:17;18.47;;;14.90;;
15295;SDS011;7749;49.964;7.890;2023-03-01T10:23:49;21.40;;;15.03;;
15295;SDS011;7749;49.964;7.890;2023-03-01T10:27:05;16.77;;;13.63;;
15295;SDS011;7749;49.964;7.890;2023-03-01T10:29:15;16.30;;;14.53;;
15295;SDS011;7749;49.964;7.890;2023-03-01T10:31:47;17.27;;;15.27;;
15295;SDS011;7749;49.964;7.890;2023-03-01T10:34:19;21.57;;;15.40;;
15295;SDS011;7749;49.964;7.890;2023-03-01T10:36:50;18.00;;;13.63;;
15295;SDS011;7749;49.964;7.890;2023-03-01T10:39:20;18.53;;;14.00;;
15295;SDS011;7749;49.964;7.890;2023-03-01T10:42:34;18.70;;;14.40;;
15295;SDS011;7749;49.964;7.890;2023-03-01T10:44:49;21.00;;;13.90;;
15295;SDS011;7749;49.964;7.890;2023-03-01T10:47:20;21.33;;;14.57;;
15295;SDS011;7749;49.964;7.890;2023-03-01T10:49:56;17.47;;;14.53;;
15295;SDS011;7749;49.964;7.890;2023-03-01T10:52:27;18.37;;;14.27;;
15295;SDS011;7749;49.964;7.890;2023-03-01T10:58:09;17.20;;;14.70;;
15295;SDS011;7749;49.964;7.890;2023-03-01T11:00:47;17.07;;;14.03;;
15295;SDS011;7749;49.964;7.890;2023-03-01T11:03:30;21.23;;;14.27;;
15295;SDS011;7749;49.964;7.890;2023-03-01T11:13:53;20.20;;;12.77;;
15295;SDS011;7749;49.964;7.890;2023-03-01T11:16:32;14.80;;;12.60;;
15295;SDS011;7749;49.964;7.890;2023-03-01T11:21:37;13.60;;;12.10;;
15295;SDS011;7749;49.964;7.890;2023-03-01T11:24:10;14.60;;;11.77;;
15295;SDS011;7749;49.964;7.890;2023-03-01T11:26:42;13.53;;;11.87;;
15295;SDS011;7749;49.964;7.890;2023-03-01T11:31:59;15.23;;;12.13;;
15295;SDS011;7749;49.964;7.890;2023-03-01T11:35:15;13.90;;;12.50;;
15295;SDS011;7749;49.964;7.890;2023-03-01T11:45:33;13.07;;;10.87;;
15295;SDS011;7749;49.964;7.890;2023-03-01T11:51:04;12.73;;;11.43;;
15295;SDS011;7749;49.964;7.890;2023-03-01T11:53:42;13.17;;;11.83;;
15295;SDS011;7749;49.964;7.890;2023-03-01T12:10:25;12.13;;;10.98;;
15295;SDS011;7749;49.964;7.890;2023-03-01T12:21:12;13.10;;;10.45;;
15295;SDS011;7749;49.964;7.890;2023-03-01T12:24:03;11.88;;;10.50;;
15295;SDS011;7749;49.964;7.890;2023-03-01T12:27:11;11.10;;;10.02;;
15295;SDS011;7749;49.964;7.890;2023-03-01T12:37:59;10.50;;;9.50;;
15295;SDS011;7749;49.964;7.890;2023-03-01T12:51:30;10.52;;;9.52;;
15295;SDS011;7749;49.964;7.890;2023-03-01T12:54:01;10.95;;;9.65;;
15295;SDS011;7749;49.964;7.890;2023-03-01T12:56:38;11.07;;;9.98;;
15295;SDS011;7749;49.964;7.890;2023-03-01T13:02:22;10.90;;;9.80;;
15295;SDS011;7749;49.964;7.890;2023-03-01T13:07:48;10.95;;;9.85;;
15295;SDS011;7749;49.964;7.890;2023-03-01T13:10:33;11.10;;;10.00;;
15295;SDS011;7749;49.964;7.890;2023-03-01T13:13:23;10.80;;;9.70;;
15295;SDS011;7749;49.964;7.890;2023-03-01T13:15:52;13.50;;;9.70;;
15295;SDS011;7749;49.964;7.890;2023-03-01T13:20:53;10.95;;;9.30;;
15295;SDS011;7749;49.964;7.890;2023-03-01T13:23:25;10.38;;;9.38;;
15295;SDS011;7749;49.964;7.890;2023-03-01T13:33:53;9.95;;;8.93;;
15295;SDS011;7749;49.964;7.890;2023-03-01T13:38:57;9.85;;;8.85;;
15295;SDS011;7749;49.964;7.890;2023-03-01T13:44:21;15.38;;;10.23;;
15295;SDS011;7749;49.964;7.890;2023-03-01T13:50:21;9.60;;;8.48;;
15295;SDS011;7749;49.964;7.890;2023-03-01T13:58:13;10.48;;;8.20;;
15295;SDS011;7749;49.964;7.890;2023-03-01T14:00:45;8.55;;;7.75;;
15295;SDS011;7749;49.964;7.890;2023-03-01T14:03:17;12.15;;;7.72;;
15295;SDS011;7749;49.964;7.890;2023-03-01T14:06:03;10.05;;;8.00;;
15295;SDS011;7749;49.964;7.890;2023-03-01T14:08:45;8.55;;;7.47;;
15295;SDS011;7749;49.964;7.890;2023-03-01T14:22:49;8.50;;;7.68;;
15295;SDS011;7749;49.964;7.890;2023-03-01T14:25:22;9.98;;;7.97;;
15295;SDS011;7749;49.964;7.890;2023-03-01T14:28:01;9.02;;;8.10;;
15295;SDS011;7749;49.964;7.890;2023-03-01T14:30:41;9.10;;;8.18;;
15295;SDS011;7749;49.964;7.890;2023-03-01T14:33:18;10.13;;;8.20;;
15295;SDS011;7749;49.964;7.890;2023-03-01T14:38:29;8.77;;;7.82;;
15295;SDS011;7749;49.964;7.890;2023-03-01T14:40:58;8.52;;;7.82;;
15295;SDS011;7749;49.964;7.890;2023-03-01T14:43:31;8.65;;;7.72;;
15295;SDS011;7749;49.964;7.890;2023-03-01T14:46:00;9.75;;;8.50;;
15295;SDS011;7749;49.964;7.890;2023-03-01T14:48:28;8.82;;;8.02;;
15295;SDS011;7749;49.964;7.890;2023-03-01T14:50:57;10.18;;;8.30;;
15295;SDS011;7749;49.964;7.890;2023-03-01T14:53:25;10.02;;;8.55;;
15295;SDS011;7749;49.964;7.890;2023-03-01T14:56:16;9.40;;;8.50;;
15295;SDS011;7749;49.964;7.890;2023-03-01T14:58:52;9.00;;;8.10;;
15295;SDS011;7749;49.964;7.890;2023-03-01T15:01:24;9.07;;;8.18;;
15295;SDS011;7749;49.964;7.890;2023-03-01T15:03:52;9.98;;;8.30;;
15295;SDS011;7749;49.964;7.890;2023-03-01T15:06:21;8.30;;;7.50;;
15295;SDS011;7749;49.964;7.890;2023-03-01T15:08:51;9.15;;;8.25;;
15295;SDS011;7749;49.964;7.890;2023-03-01T15:11:31;8.95;;;8.10;;
15295;SDS011;7749;49.964;7.890;2023-03-01T15:14:00;10.13;;;8.10;;
15295;SDS011;7749;49.964;7.890;2023-03-01T15:16:31;8.88;;;7.32;;
15295;SDS011;7749;49.964;7.890;2023-03-01T15:19:05;9.13;;;8.07;;
15295;SDS011;7749;49.964;7.890;2023-03-01T15:21:34;8.43;;;7.43;;
15295;SDS011;7749;49.964;7.890;2023-03-01T15:26:58;9.25;;;8.30;;
15295;SDS011;7749;49.964;7.890;2023-03-01T15:29:33;9.73;;;8.15;;
15295;SDS011;7749;49.964;7.890;2023-03-01T15:32:29;8.63;;;7.82;;
15295;SDS011;7749;49.964;7.890;2023-03-01T15:35:00;10.45;;;9.35;;
15295;SDS011;7749;49.964;7.890;2023-03-01T15:37:48;11.88;;;8.95;;
15295;SDS011;7749;49.964;7.890;2023-03-01T15:40:27;9.40;;;8.50;;
15295;SDS011;7749;49.964;7.890;2023-03-01T15:43:04;10.13;;;9.07;;
15295;SDS011;7749;49.964;7.890;2023-03-01T15:45:33;11.07;;;8.53;;
15295;SDS011;7749;49.964;7.890;2023-03-01T15:48:02;9.53;;;8.47;;
15295;SDS011;7749;49.964;7.890;2023-03-01T15:50:53;11.13;;;8.90;;
15295;SDS011;7749;49.964;7.890;2023-03-01T15:53:23;10.30;;;8.83;;
15295;SDS011;7749;49.964;7.890;2023-03-01T15:55:53;9.93;;;8.90;;
15295;SDS011;7749;49.964;7.890;2023-03-01T15:58:22;11.37;;;8.43;;
15295;SDS011;7749;49.964;7.890;2023-03-01T16:00:51;10.00;;;8.73;;
15295;SDS011;7749;49.964;7.890;2023-03-01T16:03:30;10.40;;;8.03;;
15295;SDS011;7749;49.964;7.890;2023-03-01T16:05:58;10.33;;;8.93;;
15295;SDS011;7749;49.964;7.890;2023-03-01T16:08:26;10.20;;;8.00;;
15295;SDS011;7749;49.964;7.890;2023-03-01T16:10:54;10.50;;;8.20;;
15295;SDS011;7749;49.964;7.890;2023-03-01T16:13:21;10.07;;;8.23;;
15295;SDS011;7749;49.964;7.890;2023-03-01T16:15:50;14.57;;;8.83;;
15295;SDS011;7749;49.964;7.890;2023-03-01T16:18:18;11.10;;;8.70;;
15295;SDS011;7749;49.964;7.890;2023-03-01T16:20:46;11.60;;;8.57;;
15295;SDS011;7749;49.964;7.890;2023-03-01T16:23:14;13.73;;;8.43;;
15295;SDS011;7749;49.964;7.890;2023-03-01T16:25:44;11.50;;;8.57;;
15295;SDS011;7749;49.964;7.890;2023-03-01T16:28:12;12.03;;;8.90;;
15295;SDS011;7749;49.964;7.890;2023-03-01T16:30:51;10.50;;;8.27;;
15295;SDS011;7749;49.964;7.890;2023-03-01T16:33:19;12.13;;;8.83;;
15295;SDS011;7749;49.964;7.890;2023-03-01T16:36:09;9.37;;;8.37;;
15295;SDS011;7749;49.964;7.890;2023-03-01T16:38:47;10.53;;;8.50;;
15295;SDS011;7749;49.964;7.890;2023-03-01T16:41:26;15.13;;;9.03;;
15295;SDS011;7749;49.964;7.890;2023-03-01T16:43:54;13.23;;;8.47;;
15295;SDS011;7749;49.964;7.890;2023-03-01T16:46:24;12.73;;;8.67;;
15295;SDS011;7749;49.964;7.890;2023-03-01T16:48:53;11.50;;;9.07;;
15295;SDS011;7749;49.964;7.890;2023-03-01T16:51:22;11.23;;;8.73;;
15295;SDS011;7749;49.964;7.890;2023-03-01T16:53:50;11.80;;;8.27;;
15295;SDS011;7749;49.964;7.890;2023-03-01T16:56:19;12.37;;;8.63;;
15295;SDS011;7749;49.964;7.890;2023-03-01T16:58:48;11.67;;;9.20;;
15295;SDS011;7749;49.964;7.890;2023-03-01T17:01:17;10.07;;;8.50;;
15295;SDS011;7749;49.964;7.890;2023-03-01T17:03:46;11.23;;;9.33;;
15295;SDS011;7749;49.964;7.890;2023-03-01T17:06:18;11.33;;;8.70;;
15295;SDS011;7749;49.964;7.890;2023-03-01T17:08:49;11.63;;;8.33;;
15295;SDS011;7749;49.964;7.890;2023-03-01T17:11:17;12.97;;;8.73;;
15295;SDS011;7749;49.964;7.890;2023-03-01T17:13:46;10.97;;;8.33;;
15295;SDS011;7749;49.964;7.890;2023-03-01T17:16:16;11.07;;;8.60;;
15295;SDS011;7749;49.964;7.890;2023-03-01T17:18:45;9.37;;;8.37;;
15295;SDS011;7749;49.964;7.890;2023-03-01T17:21:13;11.10;;;8.43;;
15295;SDS011;7749;49.964;7.890;2023-03-01T17:23:42;11.97;;;8.40;;
15295;SDS011;7749;49.964;7.890;2023-03-01T17:26:11;11.40;;;8.37;;
15295;SDS011;7749;49.964;7.890;2023-03-01T17:28:39;10.37;;;7.80;;